createdAt,value
2018-10-09T00:00:19.358Z,86.76
2018-10-09T00:01:19.365Z,86.91
2018-10-09T00:02:19.371Z,86.72
2018-10-09T00:03:19.365Z,87.24
2018-10-09T00:04:19.369Z,86.76
2018-10-09T00:05:19.370Z,86.38
2018-10-09T00:06:19.373Z,86.57
2018-10-09T00:07:19.379Z,86.19
2018-10-09T00:08:19.376Z,85.24
2018-10-09T00:09:19.383Z,85.96
2018-10-09T00:10:19.388Z,86.47
2018-10-09T00:11:19.386Z,86.47
2018-10-09T00:12:19.390Z,86.10
2018-10-09T00:13:19.390Z,85.90
2018-10-09T00:14:19.392Z,86.57
2018-10-09T00:15:19.398Z,84.85
2018-10-09T00:16:19.396Z,85.24
2018-10-09T00:17:19.398Z,85.52
2018-10-09T00:18:19.400Z,84.19
2018-10-09T00:19:19.404Z,84.28
2018-10-09T00:20:19.406Z,83.33
2018-10-09T00:21:19.408Z,83.90
2018-10-09T00:22:19.413Z,83.17
2018-10-09T00:23:19.414Z,83.13
2018-10-09T00:24:19.420Z,84.09
2018-10-09T00:25:19.418Z,84.28
2018-10-09T00:26:19.421Z,83.42
2018-10-09T00:27:19.423Z,83.70
2018-10-09T00:28:19.425Z,84.19
2018-10-09T00:29:19.428Z,83.61
2018-10-09T00:30:19.434Z,83.04
2018-10-09T00:31:19.439Z,83.99
2018-10-09T00:32:19.435Z,83.90
2018-10-09T00:33:19.437Z,84.09
2018-10-09T00:34:19.443Z,83.51
2018-10-09T00:35:19.441Z,82.89
2018-10-09T00:36:19.446Z,83.51
2018-10-09T00:37:19.447Z,83.51
2018-10-09T00:38:19.449Z,84.19
2018-10-09T00:39:19.451Z,83.61
2018-10-09T00:40:19.460Z,84.56
2018-10-09T00:41:19.455Z,83.90
2018-10-09T00:42:19.460Z,83.76
2018-10-09T00:43:19.464Z,84.91
2018-10-09T00:44:19.463Z,85.19
2018-10-09T00:45:19.467Z,84.91
2018-10-09T00:46:19.467Z,85.86
2018-10-09T00:47:19.471Z,85.29
2018-10-09T00:48:19.470Z,85.67
2018-10-09T00:49:19.474Z,85.58
2018-10-09T00:50:19.481Z,85.00
2018-10-09T00:51:19.479Z,84.09
2018-10-09T00:52:19.481Z,83.99
2018-10-09T00:53:19.489Z,83.99
2018-10-09T00:54:19.491Z,83.80
2018-10-09T00:55:19.489Z,83.23
2018-10-09T00:56:19.490Z,84.09
2018-10-09T00:57:19.499Z,84.72
2018-10-09T00:58:19.499Z,84.91
2018-10-09T00:59:19.499Z,85.19
2018-10-09T01:00:19.500Z,85.58
2018-10-09T01:01:19.501Z,85.58
2018-10-09T01:02:19.504Z,85.96
2018-10-09T01:03:19.508Z,85.67
2018-10-09T01:04:19.509Z,83.90
2018-10-09T01:05:19.513Z,84.19
2018-10-09T01:06:19.513Z,85.29
2018-10-09T01:07:19.515Z,84.95
2018-10-09T01:08:19.518Z,85.14
2018-10-09T01:09:19.603Z,85.29
2018-10-09T01:10:19.521Z,85.19
2018-10-09T01:11:19.529Z,85.58
2018-10-09T01:12:19.530Z,86.24
2018-10-09T01:13:19.528Z,85.05
2018-10-09T01:14:19.531Z,85.71
2018-10-09T01:15:19.541Z,86.53
2018-10-09T01:16:19.535Z,86.63
2018-10-09T01:17:19.541Z,86.24
2018-10-09T01:18:19.540Z,85.77
2018-10-09T01:19:19.541Z,85.71
2018-10-09T01:20:19.542Z,85.67
2018-10-09T01:21:19.545Z,85.33
2018-10-09T01:22:19.548Z,85.05
2018-10-09T01:23:19.553Z,85.62
2018-10-09T01:24:19.551Z,85.05
2018-10-09T01:25:19.554Z,84.28
2018-10-09T01:26:19.555Z,84.91
2018-10-09T01:27:19.558Z,85.71
2018-10-09T01:28:19.560Z,84.38
2018-10-09T01:29:19.564Z,84.91
2018-10-09T01:30:19.566Z,85.58
2018-10-09T01:31:19.567Z,86.53
2018-10-09T01:32:19.570Z,86.53
2018-10-09T01:33:19.571Z,86.24
2018-10-09T01:34:19.573Z,86.91
2018-10-09T01:35:19.576Z,86.91
2018-10-09T01:36:19.582Z,86.43
2018-10-09T01:37:19.596Z,85.19
2018-10-09T01:38:19.585Z,85.48
2018-10-09T01:39:19.584Z,85.29
2018-10-09T01:40:19.585Z,85.77
2018-10-09T01:41:19.587Z,85.67
2018-10-09T01:42:19.592Z,85.38
2018-10-09T01:43:19.597Z,84.28
2018-10-09T01:44:19.595Z,83.51
2018-10-09T01:45:19.601Z,84.72
2018-10-09T01:46:19.600Z,85.77
2018-10-09T01:47:19.602Z,86.43
2018-10-09T01:48:19.605Z,86.63
2018-10-09T01:49:19.604Z,85.48
2018-10-09T01:50:19.606Z,85.19
2018-10-09T01:51:19.609Z,85.58
2018-10-09T01:52:19.610Z,84.62
2018-10-09T01:53:19.612Z,83.70
2018-10-09T01:54:19.614Z,83.42
2018-10-09T01:55:19.617Z,83.23
2018-10-09T01:56:19.623Z,82.75
2018-10-09T01:57:19.621Z,82.46
2018-10-09T01:58:19.632Z,83.67
2018-10-09T01:59:19.627Z,84.52
2018-10-09T02:00:19.627Z,84.05
2018-10-09T02:01:19.634Z,84.43
2018-10-09T02:02:19.637Z,85.10
2018-10-09T02:03:19.632Z,83.95
2018-10-09T02:04:19.634Z,84.33
2018-10-09T02:05:19.644Z,84.14
2018-10-09T02:06:19.641Z,84.72
2018-10-09T02:07:19.640Z,85.19
2018-10-09T02:08:19.643Z,84.43
2018-10-09T02:09:19.648Z,83.33
2018-10-09T02:10:19.649Z,83.18
2018-10-09T02:11:19.649Z,84.43
2018-10-09T02:12:19.650Z,84.86
2018-10-09T02:13:19.653Z,85.34
2018-10-09T02:14:19.656Z,85.48
2018-10-09T02:15:19.661Z,84.62
2018-10-09T02:16:19.658Z,84.96
2018-10-09T02:17:19.660Z,85.72
2018-10-09T02:18:19.665Z,85.44
2018-10-09T02:19:19.667Z,86.20
2018-10-09T02:20:19.668Z,86.30
2018-10-09T02:21:19.671Z,86.10
2018-10-09T02:22:19.671Z,85.72
2018-10-09T02:23:19.672Z,85.72
2018-10-09T02:24:19.674Z,86.30
2018-10-09T02:25:19.676Z,86.68
2018-10-09T02:26:19.682Z,86.58
2018-10-09T02:27:19.682Z,86.30
2018-10-09T02:28:19.681Z,86.58
2018-10-09T02:29:19.692Z,85.72
2018-10-09T02:30:19.685Z,84.62
2018-10-09T02:31:19.690Z,85.00
2018-10-09T02:32:19.689Z,83.95
2018-10-09T02:33:19.691Z,84.05
2018-10-09T02:34:19.697Z,84.14
2018-10-09T02:35:19.696Z,85.63
2018-10-09T02:36:19.696Z,85.38
2018-10-09T02:37:19.703Z,84.14
2018-10-09T02:38:19.704Z,83.86
2018-10-09T02:39:19.703Z,84.10
2018-10-09T02:40:19.707Z,84.05
2018-10-09T02:41:19.711Z,83.86
2018-10-09T02:42:19.708Z,84.20
2018-10-09T02:43:19.710Z,83.47
2018-10-09T02:44:19.713Z,84.10
2018-10-09T02:45:19.714Z,83.81
2018-10-09T02:46:19.718Z,84.86
2018-10-09T02:47:19.719Z,84.05
2018-10-09T02:48:19.721Z,84.20
2018-10-09T02:49:19.725Z,84.77
2018-10-09T02:50:19.725Z,84.86
2018-10-09T02:51:19.726Z,85.15
2018-10-09T02:52:19.727Z,84.58
2018-10-09T02:53:19.733Z,85.05
2018-10-09T02:54:19.730Z,84.48
2018-10-09T02:55:19.737Z,84.43
2018-10-09T02:56:19.733Z,83.38
2018-10-09T02:57:19.736Z,84.10
2018-10-09T02:58:19.739Z,83.91
2018-10-09T02:59:19.747Z,84.00
2018-10-09T03:00:19.746Z,84.20
2018-10-09T03:01:19.749Z,83.09
2018-10-09T03:02:19.746Z,84.29
2018-10-09T03:03:19.749Z,83.81
2018-10-09T03:04:19.752Z,84.00
2018-10-09T03:05:19.752Z,84.00
2018-10-09T03:06:19.758Z,83.53
2018-10-09T03:07:19.756Z,83.43
2018-10-09T03:08:19.796Z,84.20
2018-10-09T03:09:19.762Z,82.76
2018-10-09T03:10:19.761Z,83.24
2018-10-09T03:11:19.762Z,82.71
2018-10-09T03:12:19.783Z,82.14
2018-10-09T03:13:19.768Z,82.38
2018-10-09T03:14:19.768Z,82.76
2018-10-09T03:15:19.774Z,82.67
2018-10-09T03:16:19.771Z,84.00
2018-10-09T03:17:19.773Z,82.86
2018-10-09T03:18:19.779Z,84.10
2018-10-09T03:19:19.777Z,84.39
2018-10-09T03:20:19.778Z,84.00
2018-10-09T03:21:19.784Z,83.91
2018-10-09T03:22:19.782Z,84.39
2018-10-09T03:23:19.784Z,84.29
2018-10-09T03:24:19.788Z,82.76
2018-10-09T03:25:19.788Z,82.76
2018-10-09T03:26:19.789Z,82.76
2018-10-09T03:27:19.792Z,83.05
2018-10-09T03:28:19.793Z,83.53
2018-10-09T03:29:19.795Z,84.58
2018-10-09T03:30:19.800Z,84.96
2018-10-09T03:31:19.814Z,84.67
2018-10-09T03:32:19.800Z,85.01
2018-10-09T03:33:19.804Z,85.05
2018-10-09T03:34:19.803Z,84.10
2018-10-09T03:35:19.806Z,82.71
2018-10-09T03:36:19.807Z,82.86
2018-10-09T03:37:19.809Z,82.95
2018-10-09T03:38:19.811Z,83.67
2018-10-09T03:39:19.812Z,83.43
2018-10-09T03:40:19.814Z,83.05
2018-10-09T03:41:19.819Z,82.95
2018-10-09T03:42:19.817Z,82.86
2018-10-09T03:43:19.820Z,83.67
2018-10-09T03:44:19.823Z,84.20
2018-10-09T03:45:19.826Z,84.39
2018-10-09T03:46:19.824Z,83.34
2018-10-09T03:47:19.833Z,83.87
2018-10-09T03:48:19.827Z,84.34
2018-10-09T03:49:19.830Z,83.53
2018-10-09T03:50:19.831Z,84.34
2018-10-09T03:51:19.833Z,85.11
2018-10-09T03:52:19.834Z,85.15
2018-10-09T03:53:19.841Z,83.24
2018-10-09T03:54:19.840Z,82.95
2018-10-09T03:55:19.851Z,83.24
2018-10-09T03:56:19.841Z,82.48
2018-10-09T03:57:19.843Z,81.47
2018-10-09T03:58:19.849Z,81.33
2018-10-09T03:59:19.847Z,82.48
2018-10-09T04:00:19.850Z,81.90
2018-10-09T04:01:19.852Z,82.48
2018-10-09T04:02:19.859Z,82.95
2018-10-09T04:03:19.852Z,83.29
2018-10-09T04:04:19.855Z,83.77
2018-10-09T04:05:19.855Z,83.29
2018-10-09T04:06:19.858Z,84.34
2018-10-09T04:07:19.870Z,84.82
2018-10-09T04:08:19.860Z,83.91
2018-10-09T04:09:19.870Z,83.96
2018-10-09T04:10:19.908Z,84.34
2018-10-09T04:11:19.866Z,84.53
2018-10-09T04:12:19.867Z,84.25
2018-10-09T04:13:19.876Z,83.58
2018-10-09T04:14:19.876Z,84.16
2018-10-09T04:15:19.874Z,84.16
2018-10-09T04:16:19.878Z,83.05
2018-10-09T04:17:19.876Z,84.34
2018-10-09T04:18:19.877Z,85.21
2018-10-09T04:19:19.925Z,84.06
2018-10-09T04:20:19.884Z,83.48
2018-10-09T04:21:20.089Z,84.06
2018-10-09T04:22:20.069Z,84.16
2018-10-09T04:23:19.889Z,83.01
2018-10-09T04:24:19.885Z,83.77
2018-10-09T04:25:19.896Z,84.92
2018-10-09T04:26:19.890Z,84.34
2018-10-09T04:27:19.892Z,84.34
2018-10-09T04:28:19.891Z,84.16
2018-10-09T04:29:19.949Z,83.43
2018-10-09T04:30:19.896Z,83.20
2018-10-09T04:31:20.032Z,84.06
2018-10-09T04:32:19.899Z,84.72
2018-10-09T04:33:19.900Z,84.72
2018-10-09T04:34:19.904Z,85.11
2018-10-09T04:35:19.931Z,84.16
2018-10-09T04:36:19.903Z,84.53
2018-10-09T04:37:19.913Z,84.82
2018-10-09T04:38:19.909Z,84.29
2018-10-09T04:39:19.908Z,83.62
2018-10-09T04:40:19.913Z,82.76
2018-10-09T04:41:19.914Z,82.38
2018-10-09T04:42:19.914Z,81.81
2018-10-09T04:43:19.916Z,82.04
2018-10-09T04:44:19.916Z,82.23
2018-10-09T04:45:19.965Z,81.90
2018-10-09T04:46:19.918Z,82.00
2018-10-09T04:47:19.925Z,81.66
2018-10-09T04:48:19.925Z,81.18
2018-10-09T04:49:19.930Z,81.56
2018-10-09T04:50:19.923Z,81.47
2018-10-09T04:51:19.926Z,81.85
2018-10-09T04:52:19.931Z,82.90
2018-10-09T04:53:19.929Z,82.90
2018-10-09T04:54:20.922Z,82.42
2018-10-09T04:55:19.936Z,82.42
2018-10-09T04:56:19.933Z,82.23
2018-10-09T04:57:19.934Z,82.32
2018-10-09T04:58:19.939Z,82.61
2018-10-09T04:59:19.943Z,83.00
2018-10-09T05:00:19.945Z,83.00
2018-10-09T05:01:19.943Z,83.57
2018-10-09T05:02:19.946Z,83.47
2018-10-09T05:03:19.946Z,82.90
2018-10-09T05:04:19.947Z,83.18
2018-10-09T05:05:19.954Z,83.09
2018-10-09T05:06:19.950Z,83.18
2018-10-09T05:07:19.954Z,82.90
2018-10-09T05:08:19.956Z,83.13
2018-10-09T05:09:19.955Z,82.71
2018-10-09T05:10:19.961Z,84.05
2018-10-09T05:11:19.963Z,84.05
2018-10-09T05:12:19.959Z,84.62
2018-10-09T05:13:19.964Z,84.14
2018-10-09T05:14:19.966Z,84.33
2018-10-09T05:15:19.982Z,85.00
2018-10-09T05:16:19.968Z,85.38
2018-10-09T05:17:19.968Z,85.19
2018-10-09T05:18:19.973Z,85.19
2018-10-09T05:19:19.971Z,85.67
2018-10-09T05:20:19.972Z,85.86
2018-10-09T05:21:19.974Z,85.86
2018-10-09T05:22:19.979Z,87.01
2018-10-09T05:23:20.050Z,86.53
2018-10-09T05:24:19.992Z,85.48
2018-10-09T05:25:19.980Z,85.58
2018-10-09T05:26:19.983Z,85.29
2018-10-09T05:27:19.986Z,84.38
2018-10-09T05:28:19.986Z,84.91
2018-10-09T05:29:19.991Z,85.48
2018-10-09T05:30:19.990Z,85.48
2018-10-09T05:31:20.103Z,85.19
2018-10-09T05:32:19.998Z,85.29
2018-10-09T05:33:19.994Z,84.91
2018-10-09T05:34:19.997Z,85.19
2018-10-09T05:35:20.000Z,85.67
2018-10-09T05:36:20.010Z,85.48
2018-10-09T05:37:20.003Z,85.71
2018-10-09T05:38:20.008Z,85.71
2018-10-09T05:39:20.005Z,85.42
2018-10-09T05:40:20.007Z,85.14
2018-10-09T05:41:20.010Z,85.24
2018-10-09T05:42:20.019Z,85.52
2018-10-09T05:43:20.012Z,84.95
2018-10-09T05:44:20.035Z,84.95
2018-10-09T05:45:20.024Z,85.05
2018-10-09T05:46:20.025Z,85.71
2018-10-09T05:47:20.026Z,84.95
2018-10-09T05:48:20.024Z,84.09
2018-10-09T05:49:20.023Z,84.09
2018-10-09T05:50:20.027Z,85.24
2018-10-09T05:51:20.028Z,85.52
2018-10-09T05:52:20.029Z,85.81
2018-10-09T05:53:20.031Z,85.81
2018-10-09T05:54:20.033Z,85.18
2018-10-09T05:55:20.040Z,85.09
2018-10-09T05:56:20.036Z,85.71
2018-10-09T05:57:20.038Z,85.09
2018-10-09T05:58:20.043Z,85.09
2018-10-09T05:59:20.046Z,86.19
2018-10-09T06:00:20.047Z,86.19
2018-10-09T06:01:20.050Z,86.33
2018-10-09T06:02:20.051Z,85.66
2018-10-09T06:03:20.051Z,85.57
2018-10-09T06:04:20.051Z,86.71
2018-10-09T06:05:20.054Z,86.43
2018-10-09T06:06:20.057Z,86.23
2018-10-09T06:07:20.059Z,86.52
2018-10-09T06:08:20.061Z,86.90
2018-10-09T06:09:20.063Z,87.19
2018-10-09T06:10:20.064Z,86.90
2018-10-09T06:11:20.067Z,87.29
2018-10-09T06:12:20.070Z,86.71
2018-10-09T06:13:20.074Z,86.43
2018-10-09T06:14:20.078Z,86.61
2018-10-09T06:15:20.086Z,86.71
2018-10-09T06:16:20.076Z,86.23
2018-10-09T06:17:20.111Z,85.57
2018-10-09T06:18:20.081Z,85.75
2018-10-09T06:19:20.088Z,86.71
2018-10-09T06:20:20.087Z,86.61
2018-10-09T06:21:20.090Z,87.19
2018-10-09T06:22:20.157Z,87.19
2018-10-09T06:23:20.124Z,87.76
2018-10-09T06:24:20.094Z,87.95
2018-10-09T06:25:20.114Z,87.57
2018-10-09T06:26:20.103Z,87.76
2018-10-09T06:27:20.101Z,87.23
2018-10-09T06:28:20.132Z,86.76
2018-10-09T06:29:20.112Z,86.37
2018-10-09T06:30:20.112Z,86.28
2018-10-09T06:31:20.115Z,86.47
2018-10-09T06:32:20.115Z,86.57
2018-10-09T06:33:20.116Z,86.85
2018-10-09T06:34:20.119Z,86.47
2018-10-09T06:35:20.123Z,86.37
2018-10-09T06:36:20.123Z,86.32
2018-10-09T06:37:20.201Z,85.55
2018-10-09T06:38:20.130Z,85.84
2018-10-09T06:39:20.131Z,86.94
2018-10-09T06:40:20.135Z,87.23
2018-10-09T06:41:20.148Z,87.43
2018-10-09T06:42:20.141Z,87.62
2018-10-09T06:43:20.150Z,88.09
2018-10-09T06:44:20.230Z,88.67
2018-10-09T06:45:20.145Z,88.29
2018-10-09T06:46:20.147Z,87.52
2018-10-09T06:47:20.152Z,88.48
2018-10-09T06:48:20.152Z,88.19
2018-10-09T06:49:20.157Z,88.23
2018-10-09T06:50:20.165Z,87.76
2018-10-09T06:51:20.168Z,86.51
2018-10-09T06:52:20.166Z,86.90
2018-10-09T06:53:20.248Z,87.27
2018-10-09T06:54:20.227Z,87.37
2018-10-09T06:55:20.173Z,86.99
2018-10-09T06:56:20.178Z,86.22
2018-10-09T06:57:20.178Z,86.61
2018-10-09T06:58:20.182Z,86.70
2018-10-09T06:59:20.186Z,86.41
2018-10-09T07:00:20.277Z,86.99
2018-10-09T07:01:20.195Z,86.32
2018-10-09T07:02:20.196Z,86.99
2018-10-09T07:03:20.197Z,87.56
2018-10-09T07:04:20.202Z,87.03
2018-10-09T07:05:20.204Z,86.36
2018-10-09T07:06:20.206Z,86.46
2018-10-09T07:07:20.207Z,86.65
2018-10-09T07:08:20.218Z,86.61
2018-10-09T07:09:20.225Z,86.27
2018-10-09T07:10:20.217Z,85.79
2018-10-09T07:11:20.305Z,85.79
2018-10-09T07:12:20.228Z,85.12
2018-10-09T07:13:20.228Z,85.79
2018-10-09T07:14:20.231Z,85.88
2018-10-09T07:15:20.232Z,85.60
2018-10-09T07:16:20.234Z,86.65
2018-10-09T07:17:20.239Z,86.55
2018-10-09T07:18:20.241Z,86.36
2018-10-09T07:19:20.250Z,86.08
2018-10-09T07:20:20.247Z,84.92
2018-10-09T07:21:20.252Z,85.21
2018-10-09T07:22:20.254Z,84.83
2018-10-09T07:23:20.265Z,85.41
2018-10-09T07:24:20.259Z,86.08
2018-10-09T07:25:20.265Z,86.65
2018-10-09T07:26:20.267Z,85.60
2018-10-09T07:27:20.270Z,86.55
2018-10-09T07:28:20.281Z,86.17
2018-10-09T07:29:20.276Z,85.69
2018-10-09T07:30:20.294Z,85.60
2018-10-09T07:31:20.352Z,85.64
2018-10-09T07:32:20.286Z,85.02
2018-10-09T07:33:20.288Z,85.41
2018-10-09T07:34:20.294Z,85.60
2018-10-09T07:35:20.297Z,85.35
2018-10-09T07:36:20.315Z,84.58
2018-10-09T07:37:20.303Z,84.97
2018-10-09T07:38:20.355Z,84.20
2018-10-09T07:39:20.316Z,84.20
2018-10-09T07:40:20.322Z,84.11
2018-10-09T07:41:20.339Z,84.30
2018-10-09T07:42:20.320Z,84.20
2018-10-09T07:43:20.326Z,84.16
2018-10-09T07:44:20.396Z,84.58
2018-10-09T07:45:20.337Z,84.11
2018-10-09T07:46:20.339Z,84.01
2018-10-09T07:47:20.340Z,84.01
2018-10-09T07:48:20.342Z,84.26
2018-10-09T07:49:20.352Z,85.16
2018-10-09T07:50:20.348Z,84.11
2018-10-09T07:51:20.351Z,84.30
2018-10-09T07:52:20.357Z,84.30
2018-10-09T07:53:20.375Z,84.20
2018-10-09T07:54:20.361Z,84.25
2018-10-09T07:55:20.390Z,83.67
2018-10-09T07:56:20.408Z,83.67
2018-10-09T07:57:20.373Z,84.25
2018-10-09T07:58:20.377Z,85.16
2018-10-09T07:59:20.390Z,85.83
2018-10-09T08:00:20.385Z,85.83
2018-10-09T08:01:20.389Z,85.83
2018-10-09T08:02:20.411Z,85.83
2018-10-09T08:03:20.423Z,86.50
2018-10-09T08:04:20.428Z,85.45
2018-10-09T08:05:20.407Z,85.83
2018-10-09T08:06:20.411Z,86.60
2018-10-09T08:07:20.424Z,85.49
2018-10-09T08:08:20.413Z,85.68
2018-10-09T08:09:20.416Z,85.35
2018-10-09T08:10:20.477Z,86.02
2018-10-09T08:11:20.425Z,85.68
2018-10-09T08:12:20.457Z,85.39
2018-10-09T08:13:20.445Z,85.21
2018-10-09T08:14:20.439Z,85.49
2018-10-09T08:15:20.525Z,85.21
2018-10-09T08:16:20.491Z,85.68
2018-10-09T08:17:20.449Z,85.88
2018-10-09T08:18:20.457Z,85.49
2018-10-09T08:19:20.519Z,85.34
2018-10-09T08:20:20.466Z,84.91
2018-10-09T08:21:20.464Z,84.19
2018-10-09T08:22:20.499Z,84.48
2018-10-09T08:23:20.558Z,84.09
2018-10-09T08:24:20.493Z,83.91
2018-10-09T08:25:20.479Z,84.48
2018-10-09T08:26:20.494Z,84.77
2018-10-09T08:27:20.578Z,84.00
2018-10-09T08:28:20.546Z,83.65
2018-10-09T08:29:20.496Z,83.81
2018-10-09T08:30:20.501Z,84.86
2018-10-09T08:31:20.505Z,84.58
2018-10-09T08:32:20.560Z,84.95
2018-10-09T08:33:20.513Z,84.71
2018-10-09T08:34:20.558Z,83.85
2018-10-09T08:35:20.524Z,84.38
2018-10-09T08:36:20.527Z,83.18
2018-10-09T08:37:20.538Z,83.75
2018-10-09T08:38:20.555Z,83.47
2018-10-09T08:39:20.540Z,83.27
2018-10-09T08:40:20.557Z,83.08
2018-10-09T08:41:20.652Z,82.74
2018-10-09T08:42:20.585Z,82.74
2018-10-09T08:43:20.563Z,82.41
2018-10-09T08:44:20.561Z,82.45
2018-10-09T08:45:20.656Z,82.54
2018-10-09T08:46:20.687Z,81.97
2018-10-09T08:47:20.581Z,81.87
2018-10-09T08:48:20.617Z,81.40
2018-10-09T08:49:20.630Z,81.30
2018-10-09T08:50:20.590Z,81.10
2018-10-09T08:51:20.596Z,81.30
2018-10-09T08:52:20.640Z,81.49
2018-10-09T08:53:20.645Z,81.49
2018-10-09T08:54:20.648Z,80.91
2018-10-09T08:55:20.617Z,80.91
2018-10-09T08:56:20.697Z,81.24
2018-10-09T08:57:20.650Z,82.07
2018-10-09T08:58:20.635Z,81.10
2018-10-09T08:59:20.652Z,81.78
2018-10-09T09:00:20.709Z,81.34
2018-10-09T09:01:20.703Z,81.34
2018-10-09T09:02:20.722Z,81.24
2018-10-09T09:03:20.729Z,81.82
2018-10-09T09:04:20.658Z,81.05
2018-10-09T09:05:20.674Z,81.05
2018-10-09T09:06:20.671Z,81.24
2018-10-09T09:07:20.673Z,80.96
2018-10-09T09:08:20.683Z,80.86
2018-10-09T09:09:20.687Z,80.71
2018-10-09T09:10:20.691Z,80.90
2018-10-09T09:11:20.695Z,80.71
2018-10-09T09:12:20.699Z,80.61
2018-10-09T09:13:20.708Z,80.13
2018-10-09T09:14:20.709Z,80.22
2018-10-09T09:15:20.736Z,79.75
2018-10-09T09:16:20.720Z,79.84
2018-10-09T09:17:20.726Z,79.46
2018-10-09T09:18:20.731Z,79.84
2018-10-09T09:19:20.744Z,79.84
2018-10-09T09:20:20.767Z,79.65
2018-10-09T09:21:20.824Z,79.60
2018-10-09T09:22:20.756Z,79.40
2018-10-09T09:23:20.765Z,79.60
2018-10-09T09:24:20.767Z,79.69
2018-10-09T09:25:20.770Z,79.88
2018-10-09T09:26:20.784Z,80.27
2018-10-09T09:27:20.807Z,79.98
2018-10-09T09:28:20.785Z,79.98
2018-10-09T09:29:20.807Z,79.69
2018-10-09T09:30:20.798Z,80.07
2018-10-09T09:31:20.803Z,80.17
2018-10-09T09:32:20.811Z,79.40
2018-10-09T09:33:20.987Z,79.50
2018-10-09T09:34:20.828Z,79.44
2018-10-09T09:35:20.829Z,78.28
2018-10-09T09:36:20.838Z,79.15
2018-10-09T09:37:20.861Z,79.35
2018-10-09T09:38:20.844Z,79.35
2018-10-09T09:39:20.863Z,78.58
2018-10-09T09:40:20.855Z,78.77
2018-10-09T09:41:20.861Z,78.58
2018-10-09T09:42:20.891Z,78.58
2018-10-09T09:43:20.873Z,78.38
2018-10-09T09:44:20.880Z,78.00
2018-10-09T09:45:20.885Z,77.61
2018-10-09T09:46:21.065Z,77.94
2018-10-09T09:47:20.904Z,77.46
2018-10-09T09:48:20.908Z,77.75
2018-10-09T09:49:20.924Z,78.13
2018-10-09T09:50:20.921Z,77.46
2018-10-09T09:51:20.928Z,77.17
2018-10-09T09:52:20.930Z,77.26
2018-10-09T09:53:20.934Z,76.50
2018-10-09T09:54:20.942Z,76.98
2018-10-09T09:55:20.949Z,77.65
2018-10-09T09:56:20.957Z,77.65
2018-10-09T09:57:20.960Z,78.38
2018-10-09T09:58:21.116Z,77.84
2018-10-09T09:59:21.021Z,77.65
2018-10-09T10:00:20.979Z,78.03
2018-10-09T10:01:20.991Z,77.46
2018-10-09T10:02:21.015Z,77.50
2018-10-09T10:03:21.001Z,77.36
2018-10-09T10:04:21.017Z,77.40
2018-10-09T10:05:21.013Z,76.73
2018-10-09T10:06:21.022Z,76.92
2018-10-09T10:07:21.022Z,77.01
2018-10-09T10:08:21.048Z,76.88
2018-10-09T10:09:21.061Z,76.82
2018-10-09T10:10:21.042Z,76.63
2018-10-09T10:11:21.073Z,76.44
2018-10-09T10:12:21.055Z,75.67
2018-10-09T10:13:21.062Z,75.38
2018-10-09T10:14:21.072Z,75.48
2018-10-09T10:15:21.076Z,75.19
2018-10-09T10:16:21.084Z,74.65
2018-10-09T10:17:21.087Z,74.45
2018-10-09T10:18:21.098Z,74.65
2018-10-09T10:19:21.101Z,74.55
2018-10-09T10:20:21.109Z,75.03
2018-10-09T10:21:21.180Z,74.65
2018-10-09T10:22:21.122Z,74.84
2018-10-09T10:23:21.139Z,74.40
2018-10-09T10:24:21.160Z,72.91
2018-10-09T10:25:21.152Z,72.85
2018-10-09T10:26:21.149Z,73.33
2018-10-09T10:27:21.156Z,73.24
2018-10-09T10:28:21.170Z,72.85
2018-10-09T10:29:21.170Z,73.05
2018-10-09T10:30:21.181Z,73.53
2018-10-09T10:31:21.186Z,73.14
2018-10-09T10:32:21.204Z,72.27
2018-10-09T10:33:21.201Z,72.75
2018-10-09T10:34:21.206Z,72.95
2018-10-09T10:35:21.215Z,72.37
2018-10-09T10:36:21.222Z,72.27
2018-10-09T10:37:21.263Z,72.85
2018-10-09T10:38:21.233Z,72.18
2018-10-09T10:39:21.250Z,71.79
2018-10-09T10:40:21.254Z,71.06
2018-10-09T10:41:21.259Z,71.64
2018-10-09T10:42:21.264Z,71.34
2018-10-09T10:43:21.277Z,71.64
2018-10-09T10:44:21.279Z,71.34
2018-10-09T10:45:21.285Z,71.06
2018-10-09T10:46:21.293Z,70.67
2018-10-09T10:47:21.302Z,70.86
2018-10-09T10:48:21.308Z,71.34
2018-10-09T10:49:21.332Z,71.06
2018-10-09T10:50:21.325Z,70.48
2018-10-09T10:51:21.350Z,70.03
2018-10-09T10:52:21.337Z,70.67
2018-10-09T10:53:21.343Z,70.67
2018-10-09T10:54:21.351Z,70.00
2018-10-09T10:55:21.367Z,69.55
2018-10-09T10:56:21.366Z,69.64
2018-10-09T10:57:21.374Z,69.35
2018-10-09T10:58:21.391Z,69.84
2018-10-09T10:59:21.392Z,69.74
2018-10-09T11:00:21.402Z,70.03
2018-10-09T11:01:21.426Z,69.55
2018-10-09T11:02:21.420Z,70.00
2018-10-09T11:03:21.423Z,69.55
2018-10-09T11:04:21.431Z,68.97
2018-10-09T11:05:21.435Z,69.55
2018-10-09T11:06:21.448Z,69.64
2018-10-09T11:07:21.452Z,69.35
2018-10-09T11:08:21.506Z,69.84
2018-10-09T11:09:21.466Z,69.55
2018-10-09T11:10:21.476Z,69.16
2018-10-09T11:11:21.482Z,68.97
2018-10-09T11:12:21.491Z,69.16
2018-10-09T11:13:21.497Z,68.97
2018-10-09T11:14:21.507Z,69.07
2018-10-09T11:15:21.513Z,69.07
2018-10-09T11:16:21.520Z,68.77
2018-10-09T11:17:21.528Z,68.29
2018-10-09T11:18:21.536Z,68.68
2018-10-09T11:19:21.547Z,67.81
2018-10-09T11:20:21.561Z,67.62
2018-10-09T11:21:21.686Z,67.71
2018-10-09T11:22:21.567Z,68.87
2018-10-09T11:23:21.576Z,68.52
2018-10-09T11:24:21.593Z,68.81
2018-10-09T11:25:21.592Z,68.33
2018-10-09T11:26:21.611Z,68.33
2018-10-09T11:27:21.615Z,67.65
2018-10-09T11:28:21.622Z,67.65
2018-10-09T11:29:21.631Z,68.13
2018-10-09T11:30:21.641Z,67.94
2018-10-09T11:31:21.641Z,67.17
2018-10-09T11:32:21.699Z,67.07
2018-10-09T11:33:21.658Z,67.55
2018-10-09T11:34:21.665Z,67.46
2018-10-09T11:35:21.676Z,67.07
2018-10-09T11:36:21.691Z,67.36
2018-10-09T11:37:21.696Z,67.55
2018-10-09T11:38:21.721Z,67.94
2018-10-09T11:39:21.705Z,67.94
2018-10-09T11:40:21.721Z,67.75
2018-10-09T11:41:21.721Z,67.36
2018-10-09T11:42:21.732Z,67.55
2018-10-09T11:43:21.740Z,67.55
2018-10-09T11:44:21.745Z,67.36
2018-10-09T11:45:21.762Z,67.36
2018-10-09T11:46:21.776Z,66.82
2018-10-09T11:47:21.776Z,67.46
2018-10-09T11:48:21.776Z,67.59
2018-10-09T11:49:21.786Z,67.30
2018-10-09T11:50:21.794Z,67.20
2018-10-09T11:51:21.808Z,67.69
2018-10-09T11:52:21.811Z,67.78
2018-10-09T11:53:21.819Z,66.82
2018-10-09T11:54:21.829Z,66.63
2018-10-09T11:55:21.836Z,67.01
2018-10-09T11:56:21.846Z,67.01
2018-10-09T11:57:21.865Z,66.53
2018-10-09T11:58:21.874Z,66.91
2018-10-09T11:59:21.871Z,66.63
2018-10-09T12:00:21.890Z,66.63
2018-10-09T12:01:21.898Z,66.05
2018-10-09T12:02:21.896Z,66.53
2018-10-09T12:03:21.913Z,65.27
2018-10-09T12:04:21.927Z,65.95
2018-10-09T12:05:21.923Z,66.14
2018-10-09T12:06:21.930Z,66.05
2018-10-09T12:07:21.939Z,65.85
2018-10-09T12:08:21.947Z,66.05
2018-10-09T12:09:21.960Z,66.14
2018-10-09T12:10:21.985Z,66.05
2018-10-09T12:11:21.972Z,66.24
2018-10-09T12:12:21.979Z,66.24
2018-10-09T12:13:21.988Z,66.33
2018-10-09T12:14:22.107Z,66.05
2018-10-09T12:15:22.012Z,66.05
2018-10-09T12:16:22.015Z,65.66
2018-10-09T12:17:22.030Z,66.14
2018-10-09T12:18:22.032Z,65.95
2018-10-09T12:19:22.042Z,65.85
2018-10-09T12:20:22.114Z,66.24
2018-10-09T12:21:22.065Z,66.17
2018-10-09T12:22:22.067Z,65.47
2018-10-09T12:23:22.121Z,65.30
2018-10-09T12:24:22.086Z,65.59
2018-10-09T12:25:22.094Z,65.69
2018-10-09T12:26:22.100Z,65.69
2018-10-09T12:27:22.110Z,65.59
2018-10-09T12:28:22.260Z,65.11
2018-10-09T12:29:22.220Z,65.50
2018-10-09T12:30:22.229Z,65.40
2018-10-09T12:31:22.234Z,65.40
2018-10-09T12:32:22.160Z,65.20
2018-10-09T12:33:22.183Z,65.11
2018-10-09T12:34:22.175Z,64.72
2018-10-09T12:35:22.247Z,65.20
2018-10-09T12:36:22.229Z,64.95
2018-10-09T12:37:22.200Z,64.56
2018-10-09T12:38:22.241Z,65.69
2018-10-09T12:39:22.216Z,64.76
2018-10-09T12:40:22.233Z,64.34
2018-10-09T12:41:22.234Z,64.24
2018-10-09T12:42:22.243Z,64.92
2018-10-09T12:43:22.256Z,64.47
2018-10-09T12:44:22.318Z,65.14
2018-10-09T12:45:22.298Z,64.76
2018-10-09T12:46:22.303Z,63.98
2018-10-09T12:47:22.288Z,65.14
2018-10-09T12:48:22.301Z,65.24
2018-10-09T12:49:22.306Z,64.95
2018-10-09T12:50:22.328Z,64.66
2018-10-09T12:51:22.325Z,64.40
2018-10-09T12:52:22.344Z,63.60